sensor_id;sensor_type;location;lat;lon;timestamp;temperature;humidity
73939;DHT22;62291;47.554;8.504;2022-07-29T00:00:39;17.70;99.90
73939;DHT22;62291;47.554;8.504;2022-07-29T00:03:05;17.70;99.90
73939;DHT22;62291;47.554;8.504;2022-07-29T00:05:30;17.60;99.90
73939;DHT22;62291;47.554;8.504;2022-07-29T00:07:56;17.60;99.90
73939;DHT22;62291;47.554;8.504;2022-07-29T00:10:22;17.70;99.90
73939;DHT22;62291;47.554;8.504;2022-07-29T00:12:47;17.70;99.90
73939;DHT22;62291;47.554;8.504;2022-07-29T00:15:13;17.60;99.90
73939;DHT22;62291;47.554;8.504;2022-07-29T00:17:39;17.50;99.90
73939;DHT22;62291;47.554;8.504;2022-07-29T00:20:06;17.50;99.90
73939;DHT22;62291;47.554;8.504;2022-07-29T00:22:31;17.40;99.90
73939;DHT22;62291;47.554;8.504;2022-07-29T00:24:57;17.50;99.90
73939;DHT22;62291;47.554;8.504;2022-07-29T00:27:23;17.50;99.90
73939;DHT22;62291;47.554;8.504;2022-07-29T00:29:48;17.60;99.90
73939;DHT22;62291;47.554;8.504;2022-07-29T00:32:14;17.50;99.90
73939;DHT22;62291;47.554;8.504;2022-07-29T00:34:40;17.50;99.90
73939;DHT22;62291;47.554;8.504;2022-07-29T00:37:24;17.50;99.90
73939;DHT22;62291;47.554;8.504;2022-07-29T00:39:50;17.30;99.90
73939;DHT22;62291;47.554;8.504;2022-07-29T00:42:16;17.30;99.90
73939;DHT22;62291;47.554;8.504;2022-07-29T00:44:42;17.30;99.90
73939;DHT22;62291;47.554;8.504;2022-07-29T00:47:09;17.30;99.90
73939;DHT22;62291;47.554;8.504;2022-07-29T00:49:35;17.30;99.90
73939;DHT22;62291;47.554;8.504;2022-07-29T00:52:03;17.30;99.90
73939;DHT22;62291;47.554;8.504;2022-07-29T00:54:29;17.30;99.90
73939;DHT22;62291;47.554;8.504;2022-07-29T00:56:59;17.30;99.90
73939;DHT22;62291;47.554;8.504;2022-07-29T00:59:27;17.30;99.90
73939;DHT22;62291;47.554;8.504;2022-07-29T01:01:53;17.40;99.90
73939;DHT22;62291;47.554;8.504;2022-07-29T01:04:20;17.40;99.90
73939;DHT22;62291;47.554;8.504;2022-07-29T01:06:47;17.50;99.90
73939;DHT22;62291;47.554;8.504;2022-07-29T01:09:14;17.50;99.90
73939;DHT22;62291;47.554;8.504;2022-07-29T01:11:40;17.50;99.90
73939;DHT22;62291;47.554;8.504;2022-07-29T01:14:06;17.60;99.90
73939;DHT22;62291;47.554;8.504;2022-07-29T01:16:37;17.60;99.90
73939;DHT22;62291;47.554;8.504;2022-07-29T01:19:18;17.60;99.90
73939;DHT22;62291;47.554;8.504;2022-07-29T01:21:55;17.50;99.90
73939;DHT22;62291;47.554;8.504;2022-07-29T01:27:32;17.70;99.90
73939;DHT22;62291;47.554;8.504;2022-07-29T01:30:03;17.70;99.90
73939;DHT22;62291;47.554;8.504;2022-07-29T01:32:31;17.70;99.90
73939;DHT22;62291;47.554;8.504;2022-07-29T01:35:17;17.70;99.90
73939;DHT22;62291;47.554;8.504;2022-07-29T01:37:49;17.70;99.90
73939;DHT22;62291;47.554;8.504;2022-07-29T01:40:20;17.70;99.90
73939;DHT22;62291;47.554;8.504;2022-07-29T01:42:57;17.80;99.90
73939;DHT22;62291;47.554;8.504;2022-07-29T01:45:39;17.80;99.90
73939;DHT22;62291;47.554;8.504;2022-07-29T01:48:31;17.80;99.90
73939;DHT22;62291;47.554;8.504;2022-07-29T01:51:31;17.70;99.90
73939;DHT22;62291;47.554;8.504;2022-07-29T01:56:47;17.70;99.90
73939;DHT22;62291;47.554;8.504;2022-07-29T01:59:13;17.70;99.90
73939;DHT22;62291;47.554;8.504;2022-07-29T02:01:40;17.70;99.90
73939;DHT22;62291;47.554;8.504;2022-07-29T02:04:10;17.60;99.90
73939;DHT22;62291;47.554;8.504;2022-07-29T02:06:38;17.50;99.90
73939;DHT22;62291;47.554;8.504;2022-07-29T02:09:07;17.40;99.90
73939;DHT22;62291;47.554;8.504;2022-07-29T02:11:35;17.40;99.90
73939;DHT22;62291;47.554;8.504;2022-07-29T02:14:01;17.30;99.90
73939;DHT22;62291;47.554;8.504;2022-07-29T02:16:31;17.30;99.90
73939;DHT22;62291;47.554;8.504;2022-07-29T02:18:58;17.30;99.90
73939;DHT22;62291;47.554;8.504;2022-07-29T02:21:26;17.30;99.90
73939;DHT22;62291;47.554;8.504;2022-07-29T02:23:54;17.40;99.90
73939;DHT22;62291;47.554;8.504;2022-07-29T02:26:23;17.40;99.90
73939;DHT22;62291;47.554;8.504;2022-07-29T02:28:52;17.50;99.90
73939;DHT22;62291;47.554;8.504;2022-07-29T02:31:21;17.60;99.90
73939;DHT22;62291;47.554;8.504;2022-07-29T02:33:49;17.60;99.90
73939;DHT22;62291;47.554;8.504;2022-07-29T02:36:17;17.70;99.90
73939;DHT22;62291;47.554;8.504;2022-07-29T02:38:43;17.70;99.90
73939;DHT22;62291;47.554;8.504;2022-07-29T02:41:37;17.70;99.90
73939;DHT22;62291;47.554;8.504;2022-07-29T02:44:10;17.80;99.90
73939;DHT22;62291;47.554;8.504;2022-07-29T02:46:39;17.70;99.90
73939;DHT22;62291;47.554;8.504;2022-07-29T02:49:12;17.70;99.90
73939;DHT22;62291;47.554;8.504;2022-07-29T02:51:49;17.70;99.90
73939;DHT22;62291;47.554;8.504;2022-07-29T02:54:41;17.80;99.90
73939;DHT22;62291;47.554;8.504;2022-07-29T02:57:40;17.90;99.90
73939;DHT22;62291;47.554;8.504;2022-07-29T03:00:08;17.90;99.90
73939;DHT22;62291;47.554;8.504;2022-07-29T03:02:40;17.90;99.90
73939;DHT22;62291;47.554;8.504;2022-07-29T03:05:10;17.90;99.90
73939;DHT22;62291;47.554;8.504;2022-07-29T03:07:38;17.90;99.90
73939;DHT22;62291;47.554;8.504;2022-07-29T03:10:06;18.00;99.90
73939;DHT22;62291;47.554;8.504;2022-07-29T03:12:34;18.00;99.90
73939;DHT22;62291;47.554;8.504;2022-07-29T03:15:01;18.00;99.90
73939;DHT22;62291;47.554;8.504;2022-07-29T03:17:27;18.00;99.90
73939;DHT22;62291;47.554;8.504;2022-07-29T03:19:53;18.00;99.90
73939;DHT22;62291;47.554;8.504;2022-07-29T03:22:20;18.10;99.90
73939;DHT22;62291;47.554;8.504;2022-07-29T03:24:46;18.00;99.90
73939;DHT22;62291;47.554;8.504;2022-07-29T03:27:11;18.00;99.90
73939;DHT22;62291;47.554;8.504;2022-07-29T03:29:37;18.00;99.90
73939;DHT22;62291;47.554;8.504;2022-07-29T03:32:04;18.00;99.90
73939;DHT22;62291;47.554;8.504;2022-07-29T03:34:30;18.00;99.90
73939;DHT22;62291;47.554;8.504;2022-07-29T03:36:56;17.90;99.90
73939;DHT22;62291;47.554;8.504;2022-07-29T03:39:24;17.90;99.90
73939;DHT22;62291;47.554;8.504;2022-07-29T03:41:54;17.90;99.90
73939;DHT22;62291;47.554;8.504;2022-07-29T03:44:21;17.90;99.90
73939;DHT22;62291;47.554;8.504;2022-07-29T03:46:49;17.80;99.90
73939;DHT22;62291;47.554;8.504;2022-07-29T03:49:17;17.80;99.90
73939;DHT22;62291;47.554;8.504;2022-07-29T03:51:44;17.80;99.90
73939;DHT22;62291;47.554;8.504;2022-07-29T03:54:10;17.80;99.90
73939;DHT22;62291;47.554;8.504;2022-07-29T03:56:45;17.80;99.90
73939;DHT22;62291;47.554;8.504;2022-07-29T03:59:14;17.90;99.90
73939;DHT22;62291;47.554;8.504;2022-07-29T04:01:41;17.90;99.90
73939;DHT22;62291;47.554;8.504;2022-07-29T04:04:07;17.90;99.90
73939;DHT22;62291;47.554;8.504;2022-07-29T04:06:43;18.00;99.90
73939;DHT22;62291;47.554;8.504;2022-07-29T04:09:12;18.00;99.90
73939;DHT22;62291;47.554;8.504;2022-07-29T04:11:39;18.00;99.90
73939;DHT22;62291;47.554;8.504;2022-07-29T04:14:05;18.00;99.90
73939;DHT22;62291;47.554;8.504;2022-07-29T04:16:31;18.00;99.90
73939;DHT22;62291;47.554;8.504;2022-07-29T04:18:57;18.00;99.90
73939;DHT22;62291;47.554;8.504;2022-07-29T04:21:22;18.00;99.90
73939;DHT22;62291;47.554;8.504;2022-07-29T04:23:48;18.00;99.90
73939;DHT22;62291;47.554;8.504;2022-07-29T04:26:17;17.90;99.90
73939;DHT22;62291;47.554;8.504;2022-07-29T04:28:43;17.90;99.90
73939;DHT22;62291;47.554;8.504;2022-07-29T04:31:09;17.90;99.90
73939;DHT22;62291;47.554;8.504;2022-07-29T04:33:35;17.90;99.90
73939;DHT22;62291;47.554;8.504;2022-07-29T04:36:01;17.90;99.90
73939;DHT22;62291;47.554;8.504;2022-07-29T04:38:27;18.00;99.90
73939;DHT22;62291;47.554;8.504;2022-07-29T04:40:52;18.00;99.90
73939;DHT22;62291;47.554;8.504;2022-07-29T04:43:18;18.00;99.90
73939;DHT22;62291;47.554;8.504;2022-07-29T04:45:44;18.00;99.90
73939;DHT22;62291;47.554;8.504;2022-07-29T04:48:09;18.00;99.90
73939;DHT22;62291;47.554;8.504;2022-07-29T04:50:38;18.10;99.90
73939;DHT22;62291;47.554;8.504;2022-07-29T04:53:04;18.20;99.90
73939;DHT22;62291;47.554;8.504;2022-07-29T04:55:29;18.20;99.90
73939;DHT22;62291;47.554;8.504;2022-07-29T04:57:55;18.30;99.90
73939;DHT22;62291;47.554;8.504;2022-07-29T05:00:20;18.30;99.90
73939;DHT22;62291;47.554;8.504;2022-07-29T05:02:48;18.40;99.90
73939;DHT22;62291;47.554;8.504;2022-07-29T05:05:14;18.40;99.90
73939;DHT22;62291;47.554;8.504;2022-07-29T05:07:40;18.50;99.90
73939;DHT22;62291;47.554;8.504;2022-07-29T05:10:06;18.50;99.90
73939;DHT22;62291;47.554;8.504;2022-07-29T05:12:32;18.50;99.90
73939;DHT22;62291;47.554;8.504;2022-07-29T05:14:57;18.50;99.90
73939;DHT22;62291;47.554;8.504;2022-07-29T05:17:23;18.50;99.90
73939;DHT22;62291;47.554;8.504;2022-07-29T05:19:48;18.50;99.90
73939;DHT22;62291;47.554;8.504;2022-07-29T05:22:17;18.50;99.90
73939;DHT22;62291;47.554;8.504;2022-07-29T05:24:43;18.60;99.90
73939;DHT22;62291;47.554;8.504;2022-07-29T05:27:09;18.60;99.90
73939;DHT22;62291;47.554;8.504;2022-07-29T05:29:35;18.70;99.90
73939;DHT22;62291;47.554;8.504;2022-07-29T05:32:00;18.70;99.90
73939;DHT22;62291;47.554;8.504;2022-07-29T05:34:26;18.70;99.90
73939;DHT22;62291;47.554;8.504;2022-07-29T05:36:52;18.80;99.90
73939;DHT22;62291;47.554;8.504;2022-07-29T05:39:18;18.80;99.90
73939;DHT22;62291;47.554;8.504;2022-07-29T05:41:44;18.90;99.90
73939;DHT22;62291;47.554;8.504;2022-07-29T05:44:10;19.10;99.90
73939;DHT22;62291;47.554;8.504;2022-07-29T05:46:36;19.90;99.90
73939;DHT22;62291;47.554;8.504;2022-07-29T05:49:02;20.70;99.90
73939;DHT22;62291;47.554;8.504;2022-07-29T05:51:28;21.50;99.90
73939;DHT22;62291;47.554;8.504;2022-07-29T05:53:55;22.60;99.90
73939;DHT22;62291;47.554;8.504;2022-07-29T05:56:20;23.30;99.90
73939;DHT22;62291;47.554;8.504;2022-07-29T05:58:46;24.20;99.90
73939;DHT22;62291;47.554;8.504;2022-07-29T06:01:12;24.90;99.90
73939;DHT22;62291;47.554;8.504;2022-07-29T06:03:37;24.70;99.90
73939;DHT22;62291;47.554;8.504;2022-07-29T06:06:03;24.50;99.90
73939;DHT22;62291;47.554;8.504;2022-07-29T06:08:31;24.10;99.90
73939;DHT22;62291;47.554;8.504;2022-07-29T06:10:59;23.80;99.90
73939;DHT22;62291;47.554;8.504;2022-07-29T06:13:25;23.80;99.90
73939;DHT22;62291;47.554;8.504;2022-07-29T06:15:50;23.60;99.90
73939;DHT22;62291;47.554;8.504;2022-07-29T06:18:16;23.20;99.90
73939;DHT22;62291;47.554;8.504;2022-07-29T06:20:42;23.00;99.90
73939;DHT22;62291;47.554;8.504;2022-07-29T06:23:08;22.90;99.90
73939;DHT22;62291;47.554;8.504;2022-07-29T06:25:35;23.10;99.90
73939;DHT22;62291;47.554;8.504;2022-07-29T06:28:02;23.40;99.90
73939;DHT22;62291;47.554;8.504;2022-07-29T06:30:28;24.00;99.90
73939;DHT22;62291;47.554;8.504;2022-07-29T06:32:56;24.30;99.90
73939;DHT22;62291;47.554;8.504;2022-07-29T06:35:22;24.60;99.20
73939;DHT22;62291;47.554;8.504;2022-07-29T06:37:47;24.60;98.30
73939;DHT22;62291;47.554;8.504;2022-07-29T06:40:13;24.70;98.50
73939;DHT22;62291;47.554;8.504;2022-07-29T06:42:57;24.70;97.80
73939;DHT22;62291;47.554;8.504;2022-07-29T06:45:23;24.90;96.80
73939;DHT22;62291;47.554;8.504;2022-07-29T06:47:49;24.70;97.00
73939;DHT22;62291;47.554;8.504;2022-07-29T06:50:15;24.50;97.20
73939;DHT22;62291;47.554;8.504;2022-07-29T06:52:41;24.30;97.90
73939;DHT22;62291;47.554;8.504;2022-07-29T06:55:07;24.10;98.50
73939;DHT22;62291;47.554;8.504;2022-07-29T06:57:33;23.80;99.40
73939;DHT22;62291;47.554;8.504;2022-07-29T06:59:59;23.70;99.90
73939;DHT22;62291;47.554;8.504;2022-07-29T07:02:26;23.60;99.90
73939;DHT22;62291;47.554;8.504;2022-07-29T07:04:52;23.70;99.90
73939;DHT22;62291;47.554;8.504;2022-07-29T07:07:17;23.70;99.90
73939;DHT22;62291;47.554;8.504;2022-07-29T07:09:43;23.60;99.90
73939;DHT22;62291;47.554;8.504;2022-07-29T07:12:12;23.70;99.90
73939;DHT22;62291;47.554;8.504;2022-07-29T07:14:37;23.70;99.90
73939;DHT22;62291;47.554;8.504;2022-07-29T07:17:05;23.70;99.90
73939;DHT22;62291;47.554;8.504;2022-07-29T07:19:32;23.60;99.90
73939;DHT22;62291;47.554;8.504;2022-07-29T07:21:58;23.70;99.90
73939;DHT22;62291;47.554;8.504;2022-07-29T07:24:23;23.70;99.90
73939;DHT22;62291;47.554;8.504;2022-07-29T07:26:49;23.60;99.90
73939;DHT22;62291;47.554;8.504;2022-07-29T07:29:14;23.50;99.90
73939;DHT22;62291;47.554;8.504;2022-07-29T07:31:40;23.40;99.90
73939;DHT22;62291;47.554;8.504;2022-07-29T07:34:06;23.30;99.90
73939;DHT22;62291;47.554;8.504;2022-07-29T07:36:32;23.30;99.90
73939;DHT22;62291;47.554;8.504;2022-07-29T07:38:57;23.30;99.90
73939;DHT22;62291;47.554;8.504;2022-07-29T07:41:23;23.30;99.90
73939;DHT22;62291;47.554;8.504;2022-07-29T07:43:49;23.40;99.90
73939;DHT22;62291;47.554;8.504;2022-07-29T07:46:15;23.50;99.90
73939;DHT22;62291;47.554;8.504;2022-07-29T07:48:40;23.70;99.90
73939;DHT22;62291;47.554;8.504;2022-07-29T07:51:06;23.80;99.90
73939;DHT22;62291;47.554;8.504;2022-07-29T07:53:32;23.90;99.90
73939;DHT22;62291;47.554;8.504;2022-07-29T07:55:58;23.70;99.90
73939;DHT22;62291;47.554;8.504;2022-07-29T07:58:24;23.50;99.90
73939;DHT22;62291;47.554;8.504;2022-07-29T08:00:50;23.50;99.90
73939;DHT22;62291;47.554;8.504;2022-07-29T08:03:15;23.50;99.90
73939;DHT22;62291;47.554;8.504;2022-07-29T08:05:41;23.50;99.90
73939;DHT22;62291;47.554;8.504;2022-07-29T08:08:07;23.30;99.90
73939;DHT22;62291;47.554;8.504;2022-07-29T08:10:33;23.20;99.90
73939;DHT22;62291;47.554;8.504;2022-07-29T08:13:18;23.10;99.90
73939;DHT22;62291;47.554;8.504;2022-07-29T08:15:44;23.10;99.90
73939;DHT22;62291;47.554;8.504;2022-07-29T08:18:12;23.20;99.90
73939;DHT22;62291;47.554;8.504;2022-07-29T08:20:38;23.30;99.90
73939;DHT22;62291;47.554;8.504;2022-07-29T08:23:06;23.30;99.90
73939;DHT22;62291;47.554;8.504;2022-07-29T08:25:37;23.30;99.90
73939;DHT22;62291;47.554;8.504;2022-07-29T08:28:04;23.20;99.90
73939;DHT22;62291;47.554;8.504;2022-07-29T08:30:30;23.20;99.90
73939;DHT22;62291;47.554;8.504;2022-07-29T08:32:57;23.00;99.90
73939;DHT22;62291;47.554;8.504;2022-07-29T08:35:24;22.90;99.90
73939;DHT22;62291;47.554;8.504;2022-07-29T08:37:50;22.90;99.90
73939;DHT22;62291;47.554;8.504;2022-07-29T08:40:16;22.80;99.90
73939;DHT22;62291;47.554;8.504;2022-07-29T08:42:42;22.70;99.90
73939;DHT22;62291;47.554;8.504;2022-07-29T08:45:08;22.50;99.90
73939;DHT22;62291;47.554;8.504;2022-07-29T08:47:34;22.40;99.90
73939;DHT22;62291;47.554;8.504;2022-07-29T08:50:05;22.40;99.90
73939;DHT22;62291;47.554;8.504;2022-07-29T08:52:35;22.40;99.90
73939;DHT22;62291;47.554;8.504;2022-07-29T08:55:02;22.50;99.90
73939;DHT22;62291;47.554;8.504;2022-07-29T08:57:28;22.40;99.90
73939;DHT22;62291;47.554;8.504;2022-07-29T08:59:54;22.30;99.90
73939;DHT22;62291;47.554;8.504;2022-07-29T09:02:21;22.10;99.90
73939;DHT22;62291;47.554;8.504;2022-07-29T09:04:48;22.00;99.90
73939;DHT22;62291;47.554;8.504;2022-07-29T09:07:18;22.00;99.90
73939;DHT22;62291;47.554;8.504;2022-07-29T09:09:44;22.10;99.90
73939;DHT22;62291;47.554;8.504;2022-07-29T09:12:13;22.10;99.90
73939;DHT22;62291;47.554;8.504;2022-07-29T09:14:39;22.00;99.90
73939;DHT22;62291;47.554;8.504;2022-07-29T09:17:06;22.00;99.90
73939;DHT22;62291;47.554;8.504;2022-07-29T09:19:34;22.00;99.90
73939;DHT22;62291;47.554;8.504;2022-07-29T09:22:05;22.00;99.90
73939;DHT22;62291;47.554;8.504;2022-07-29T09:27:00;22.50;99.90
73939;DHT22;62291;47.554;8.504;2022-07-29T09:29:27;22.60;99.90
73939;DHT22;62291;47.554;8.504;2022-07-29T09:31:54;22.60;99.90
73939;DHT22;62291;47.554;8.504;2022-07-29T09:34:25;22.80;99.90
73939;DHT22;62291;47.554;8.504;2022-07-29T09:36:52;22.90;99.90
73939;DHT22;62291;47.554;8.504;2022-07-29T09:41:56;23.00;99.90
73939;DHT22;62291;47.554;8.504;2022-07-29T09:44:23;23.10;99.90
73939;DHT22;62291;47.554;8.504;2022-07-29T09:47:01;23.10;99.90
73939;DHT22;62291;47.554;8.504;2022-07-29T09:49:35;23.10;99.90
73939;DHT22;62291;47.554;8.504;2022-07-29T09:54:30;23.00;99.90
73939;DHT22;62291;47.554;8.504;2022-07-29T09:57:03;23.10;99.90
73939;DHT22;62291;47.554;8.504;2022-07-29T09:59:29;23.20;99.90
73939;DHT22;62291;47.554;8.504;2022-07-29T10:01:56;23.60;99.90
73939;DHT22;62291;47.554;8.504;2022-07-29T10:04:22;24.00;99.90
73939;DHT22;62291;47.554;8.504;2022-07-29T10:07:02;24.50;99.90
73939;DHT22;62291;47.554;8.504;2022-07-29T10:09:28;25.10;99.90
73939;DHT22;62291;47.554;8.504;2022-07-29T10:12:13;25.70;99.90
73939;DHT22;62291;47.554;8.504;2022-07-29T10:14:42;26.30;99.90
73939;DHT22;62291;47.554;8.504;2022-07-29T10:17:11;27.10;99.90
73939;DHT22;62291;47.554;8.504;2022-07-29T10:19:38;27.70;96.20
73939;DHT22;62291;47.554;8.504;2022-07-29T10:22:06;27.90;94.10
73939;DHT22;62291;47.554;8.504;2022-07-29T10:24:33;28.60;94.50
73939;DHT22;62291;47.554;8.504;2022-07-29T10:27:02;29.10;91.60
73939;DHT22;62291;47.554;8.504;2022-07-29T10:29:29;29.70;89.40
73939;DHT22;62291;47.554;8.504;2022-07-29T10:32:17;30.40;85.90
73939;DHT22;62291;47.554;8.504;2022-07-29T10:37:28;31.20;80.00
73939;DHT22;62291;47.554;8.504;2022-07-29T10:40:10;31.20;76.70
73939;DHT22;62291;47.554;8.504;2022-07-29T10:43:02;31.10;75.80
73939;DHT22;62291;47.554;8.504;2022-07-29T10:45:32;31.00;73.70
73939;DHT22;62291;47.554;8.504;2022-07-29T10:48:05;30.90;72.90
73939;DHT22;62291;47.554;8.504;2022-07-29T10:53:21;31.30;66.90
73939;DHT22;62291;47.554;8.504;2022-07-29T10:55:47;31.30;68.30
73939;DHT22;62291;47.554;8.504;2022-07-29T10:58:19;31.50;68.40
73939;DHT22;62291;47.554;8.504;2022-07-29T11:00:47;31.60;66.00
73939;DHT22;62291;47.554;8.504;2022-07-29T11:03:45;31.20;66.10
73939;DHT22;62291;47.554;8.504;2022-07-29T11:06:12;30.80;68.30
73939;DHT22;62291;47.554;8.504;2022-07-29T11:08:38;30.70;70.30
73939;DHT22;62291;47.554;8.504;2022-07-29T11:13:46;31.20;68.90
73939;DHT22;62291;47.554;8.504;2022-07-29T11:16:13;31.60;68.30
73939;DHT22;62291;47.554;8.504;2022-07-29T11:21:43;31.30;66.60
73939;DHT22;62291;47.554;8.504;2022-07-29T11:24:13;31.40;67.30
73939;DHT22;62291;47.554;8.504;2022-07-29T11:26:39;31.30;66.00
73939;DHT22;62291;47.554;8.504;2022-07-29T11:31:48;30.50;68.00
73939;DHT22;62291;47.554;8.504;2022-07-29T11:39:39;29.40;70.10
73939;DHT22;62291;47.554;8.504;2022-07-29T11:45:06;29.20;69.00
73939;DHT22;62291;47.554;8.504;2022-07-29T11:47:37;29.10;68.00
73939;DHT22;62291;47.554;8.504;2022-07-29T11:50:05;28.90;71.10
73939;DHT22;62291;47.554;8.504;2022-07-29T11:52:42;29.00;71.20
73939;DHT22;62291;47.554;8.504;2022-07-29T11:55:10;29.40;70.40
73939;DHT22;62291;47.554;8.504;2022-07-29T11:57:44;29.60;69.80
73939;DHT22;62291;47.554;8.504;2022-07-29T12:00:11;29.70;70.00
73939;DHT22;62291;47.554;8.504;2022-07-29T12:02:42;29.60;70.30
73939;DHT22;62291;47.554;8.504;2022-07-29T12:05:09;29.50;68.60
73939;DHT22;62291;47.554;8.504;2022-07-29T12:07:37;29.20;67.90
73939;DHT22;62291;47.554;8.504;2022-07-29T12:10:05;29.00;67.60
73939;DHT22;62291;47.554;8.504;2022-07-29T12:12:30;28.80;69.20
73939;DHT22;62291;47.554;8.504;2022-07-29T12:14:56;28.70;68.70
73939;DHT22;62291;47.554;8.504;2022-07-29T12:17:26;28.70;71.40
73939;DHT22;62291;47.554;8.504;2022-07-29T12:19:53;28.80;69.60
73939;DHT22;62291;47.554;8.504;2022-07-29T12:22:26;28.60;66.40
73939;DHT22;62291;47.554;8.504;2022-07-29T12:24:53;28.60;68.40
73939;DHT22;62291;47.554;8.504;2022-07-29T12:27:19;28.60;69.20
73939;DHT22;62291;47.554;8.504;2022-07-29T12:29:54;28.60;68.10
73939;DHT22;62291;47.554;8.504;2022-07-29T12:32:20;28.50;66.30
73939;DHT22;62291;47.554;8.504;2022-07-29T12:34:46;28.30;66.80
73939;DHT22;62291;47.554;8.504;2022-07-29T12:37:12;28.00;67.40
73939;DHT22;62291;47.554;8.504;2022-07-29T12:39:38;28.00;69.90
73939;DHT22;62291;47.554;8.504;2022-07-29T12:42:14;28.00;67.20
73939;DHT22;62291;47.554;8.504;2022-07-29T12:44:48;27.90;64.40
73939;DHT22;62291;47.554;8.504;2022-07-29T12:47:15;27.70;64.00
73939;DHT22;62291;47.554;8.504;2022-07-29T12:49:41;27.70;66.40
73939;DHT22;62291;47.554;8.504;2022-07-29T12:52:27;27.50;64.80
73939;DHT22;62291;47.554;8.504;2022-07-29T12:54:53;27.50;67.50
73939;DHT22;62291;47.554;8.504;2022-07-29T12:57:19;27.50;65.80
73939;DHT22;62291;47.554;8.504;2022-07-29T12:59:45;27.50;67.40
73939;DHT22;62291;47.554;8.504;2022-07-29T13:02:23;27.50;65.10
73939;DHT22;62291;47.554;8.504;2022-07-29T13:04:56;27.60;64.40
73939;DHT22;62291;47.554;8.504;2022-07-29T13:07:27;27.60;62.50
73939;DHT22;62291;47.554;8.504;2022-07-29T13:10:16;27.40;61.40
73939;DHT22;62291;47.554;8.504;2022-07-29T13:13:10;27.20;62.60
73939;DHT22;62291;47.554;8.504;2022-07-29T13:15:44;27.10;64.20
73939;DHT22;62291;47.554;8.504;2022-07-29T13:18:34;27.10;63.30
73939;DHT22;62291;47.554;8.504;2022-07-29T13:21:15;26.90;64.50
73939;DHT22;62291;47.554;8.504;2022-07-29T13:23:41;26.50;64.20
73939;DHT22;62291;47.554;8.504;2022-07-29T13:26:08;26.40;65.10
73939;DHT22;62291;47.554;8.504;2022-07-29T13:28:35;26.20;66.30
73939;DHT22;62291;47.554;8.504;2022-07-29T13:31:01;26.00;68.70
73939;DHT22;62291;47.554;8.504;2022-07-29T13:33:27;25.70;68.50
73939;DHT22;62291;47.554;8.504;2022-07-29T13:35:53;25.60;69.50
73939;DHT22;62291;47.554;8.504;2022-07-29T13:38:18;25.60;70.20
73939;DHT22;62291;47.554;8.504;2022-07-29T13:40:44;25.60;70.70
73939;DHT22;62291;47.554;8.504;2022-07-29T13:43:11;25.60;71.10
73939;DHT22;62291;47.554;8.504;2022-07-29T13:45:37;25.50;71.50
73939;DHT22;62291;47.554;8.504;2022-07-29T13:48:03;25.40;71.10
73939;DHT22;62291;47.554;8.504;2022-07-29T13:50:29;25.40;70.90
73939;DHT22;62291;47.554;8.504;2022-07-29T13:52:54;25.20;70.00
73939;DHT22;62291;47.554;8.504;2022-07-29T13:55:20;25.10;71.40
73939;DHT22;62291;47.554;8.504;2022-07-29T13:57:46;25.10;71.40
73939;DHT22;62291;47.554;8.504;2022-07-29T14:00:13;25.10;71.10
73939;DHT22;62291;47.554;8.504;2022-07-29T14:02:40;25.10;71.60
73939;DHT22;62291;47.554;8.504;2022-07-29T14:05:06;25.10;71.20
73939;DHT22;62291;47.554;8.504;2022-07-29T14:07:32;25.10;72.90
73939;DHT22;62291;47.554;8.504;2022-07-29T14:09:58;25.20;71.90
73939;DHT22;62291;47.554;8.504;2022-07-29T14:12:23;25.20;72.10
73939;DHT22;62291;47.554;8.504;2022-07-29T14:14:49;25.30;72.20
73939;DHT22;62291;47.554;8.504;2022-07-29T14:17:15;25.20;73.00
73939;DHT22;62291;47.554;8.504;2022-07-29T14:19:41;25.20;75.30
73939;DHT22;62291;47.554;8.504;2022-07-29T14:22:08;25.20;75.00
73939;DHT22;62291;47.554;8.504;2022-07-29T14:24:34;25.10;76.10
73939;DHT22;62291;47.554;8.504;2022-07-29T14:27:00;25.00;76.80
73939;DHT22;62291;47.554;8.504;2022-07-29T14:29:26;24.90;79.20
73939;DHT22;62291;47.554;8.504;2022-07-29T14:31:52;24.70;84.10
73939;DHT22;62291;47.554;8.504;2022-07-29T14:34:18;24.50;86.20
73939;DHT22;62291;47.554;8.504;2022-07-29T14:36:43;24.20;91.10
73939;DHT22;62291;47.554;8.504;2022-07-29T14:39:09;24.00;92.90
73939;DHT22;62291;47.554;8.504;2022-07-29T14:41:35;23.90;94.30
73939;DHT22;62291;47.554;8.504;2022-07-29T14:44:01;23.80;95.60
73939;DHT22;62291;47.554;8.504;2022-07-29T14:46:27;23.70;97.20
73939;DHT22;62291;47.554;8.504;2022-07-29T14:48:53;23.60;99.10
73939;DHT22;62291;47.554;8.504;2022-07-29T14:51:19;23.40;99.90
73939;DHT22;62291;47.554;8.504;2022-07-29T14:53:44;23.30;99.90
73939;DHT22;62291;47.554;8.504;2022-07-29T14:56:10;23.10;99.90
73939;DHT22;62291;47.554;8.504;2022-07-29T14:58:36;23.00;99.90
73939;DHT22;62291;47.554;8.504;2022-07-29T15:01:01;22.90;99.90
73939;DHT22;62291;47.554;8.504;2022-07-29T15:03:27;22.80;99.90
73939;DHT22;62291;47.554;8.504;2022-07-29T15:05:54;22.70;99.90
73939;DHT22;62291;47.554;8.504;2022-07-29T15:08:20;22.60;99.90
73939;DHT22;62291;47.554;8.504;2022-07-29T15:10:46;22.60;99.90
73939;DHT22;62291;47.554;8.504;2022-07-29T15:13:12;22.40;99.90
73939;DHT22;62291;47.554;8.504;2022-07-29T15:15:38;22.40;99.90
73939;DHT22;62291;47.554;8.504;2022-07-29T15:18:04;22.30;99.90
73939;DHT22;62291;47.554;8.504;2022-07-29T15:20:30;22.20;99.90
73939;DHT22;62291;47.554;8.504;2022-07-29T15:22:56;22.20;99.90
73939;DHT22;62291;47.554;8.504;2022-07-29T15:25:23;22.20;99.90
73939;DHT22;62291;47.554;8.504;2022-07-29T15:27:49;22.10;99.90
73939;DHT22;62291;47.554;8.504;2022-07-29T15:30:14;22.10;99.90
73939;DHT22;62291;47.554;8.504;2022-07-29T15:32:43;22.10;99.90
73939;DHT22;62291;47.554;8.504;2022-07-29T15:35:09;22.10;99.90
73939;DHT22;62291;47.554;8.504;2022-07-29T15:37:37;22.20;99.90
73939;DHT22;62291;47.554;8.504;2022-07-29T15:40:04;22.10;99.90
73939;DHT22;62291;47.554;8.504;2022-07-29T15:42:30;22.10;99.90
73939;DHT22;62291;47.554;8.504;2022-07-29T15:44:55;22.00;99.90
73939;DHT22;62291;47.554;8.504;2022-07-29T15:47:22;21.90;99.90
73939;DHT22;62291;47.554;8.504;2022-07-29T15:49:47;21.80;99.90
73939;DHT22;62291;47.554;8.504;2022-07-29T15:52:15;21.80;99.90
73939;DHT22;62291;47.554;8.504;2022-07-29T15:54:41;21.80;99.90
73939;DHT22;62291;47.554;8.504;2022-07-29T15:57:07;21.70;99.90
73939;DHT22;62291;47.554;8.504;2022-07-29T15:59:33;21.60;99.90
73939;DHT22;62291;47.554;8.504;2022-07-29T16:01:59;21.60;99.90
73939;DHT22;62291;47.554;8.504;2022-07-29T16:04:26;21.50;99.90
73939;DHT22;62291;47.554;8.504;2022-07-29T16:06:52;21.50;99.90
73939;DHT22;62291;47.554;8.504;2022-07-29T16:09:19;21.40;99.90
73939;DHT22;62291;47.554;8.504;2022-07-29T16:11:45;21.40;99.90